Dover AFB, Delaware
Current Conditions -  °F | °C
As of 6:58 PM on Monday 20 Oct 2014 (Local Time) from KDOV Reporting Station
Clear Clear  
Wind Chill: 57°   Ceiling: Unl
Heat Index: 57°   Visibility: 9mi
Dew Point: 43°   Wind: 8mph
Humidity: 61%   Direction: 190°S
Pressure: 29.97"   Gusts: NA
Location:  39.16°N, 75.52°W
Report Text: KDOV 202258Z AUTO 19007KT 9SM CLR 14/06 A2997 RMK AO2 SLP152 T01370063
Loading
Personal Weather Stations






























Interactive Weather Map
Tropical Storm Tracking
New forecast layout! Learn more

10-Day Weather Forecast

Advertisements
Track Severe Weather on mobile